Time;durP1;ratioP1;P1;durP2;ratioP2;P2;SDS_P1;SDS_P2;PMS_P1;PMS_P2;Temp;Humidity;BMP_temperature;BMP_pressure;BME280_temperature;BME280_humidity;BME280_pressure;Samples;Min_cycle;Max_cycle;Signal;HPM_P1;HPM_P2
2022/07/26 00:03:12;;;;;;;6.25;2.63;;;;;;;19.42;51.79;99660.75;10325211;28;20583;-77
2022/07/26 00:08:13;;;;;;;5.95;2.40;;;;;;;19.37;51.89;99665.69;10347239;28;20090;-77
2022/07/26 00:13:18;;;;;;;8.57;2.78;;;;;;;19.35;52.14;99661.53;10331759;28;20393;-77
2022/07/26 00:18:20;;;;;;;7.95;2.70;;;;;;;19.35;51.77;99662.34;10332344;28;20448;-77
2022/07/26 00:23:22;;;;;;;7.72;2.40;;;;;;;19.36;51.82;99671.97;10331096;28;20428;-77
2022/07/26 00:28:24;;;;;;;9.30;2.75;;;;;;;19.33;51.62;99682.06;10329767;28;21017;-77
2022/07/26 00:33:25;;;;;;;7.18;2.78;;;;;;;19.45;51.58;99679.00;10347915;28;20113;-77
2022/07/26 00:38:27;;;;;;;9.45;2.80;;;;;;;19.46;51.73;99685.97;10329886;28;20566;-77
2022/07/26 00:43:29;;;;;;;6.90;2.65;;;;;;;19.53;51.78;99693.31;10334456;28;20385;-77
2022/07/26 00:48:31;;;;;;;11.57;3.10;;;;;;;19.43;51.87;99696.91;10342822;28;20148;-77
2022/07/26 00:53:33;;;;;;;6.43;2.90;;;;;;;19.33;52.09;99692.66;10330245;28;20496;-77
2022/07/26 00:58:35;;;;;;;7.22;2.90;;;;;;;19.18;52.24;99695.00;10337215;28;20136;-77
2022/07/26 01:03:36;;;;;;;9.55;3.15;;;;;;;19.17;52.45;99709.28;10356339;28;20515;-77
2022/07/26 01:08:40;;;;;;;6.35;2.70;;;;;;;18.98;52.36;99714.66;10340923;28;20060;-77
2022/07/26 01:13:46;;;;;;;7.00;2.50;;;;;;;18.83;52.84;99712.69;10341252;28;20084;-77
2022/07/26 01:18:48;;;;;;;10.82;2.95;;;;;;;18.73;52.82;99704.78;10356584;28;20046;-77
2022/07/26 01:23:50;;;;;;;5.70;2.45;;;;;;;18.57;53.38;99710.72;10338114;28;20569;-77
2022/07/26 01:28:51;;;;;;;9.65;2.97;;;;;;;18.52;54.07;99717.47;10338485;28;20093;-77
2022/07/26 01:33:53;;;;;;;9.38;2.80;;;;;;;18.45;54.08;99722.50;10352848;28;20062;-77
2022/07/26 01:38:55;;;;;;;9.35;2.85;;;;;;;18.33;54.45;99714.88;10353650;28;20121;-77
2022/07/26 01:43:57;;;;;;;7.15;2.75;;;;;;;18.32;54.37;99724.63;10334374;28;20987;-76
2022/07/26 01:49:00;;;;;;;7.30;2.58;;;;;;;18.27;54.68;99726.06;10354882;28;20058;-77
2022/07/26 01:54:02;;;;;;;5.45;2.58;;;;;;;18.24;55.14;99727.19;10336056;28;20065;-77
2022/07/26 01:59:04;;;;;;;6.95;3.05;;;;;;;17.99;55.57;99748.13;10339829;28;20064;-77
2022/07/26 02:04:57;;;;;;;8.48;3.03;;;;;;;17.84;56.43;99745.09;10339917;28;20049;-76
2022/07/26 02:09:44;;;;;;;11.77;2.60;;;;;;;17.85;56.09;99742.31;10343018;28;20492;-77
2022/07/26 02:14:48;;;;;;;8.90;2.90;;;;;;;17.85;55.92;99752.06;10343347;28;20150;-77
2022/07/26 02:19:51;;;;;;;8.60;2.80;;;;;;;17.77;56.13;99747.47;10357849;28;20050;-77
2022/07/26 02:24:53;;;;;;;5.68;2.65;;;;;;;17.65;56.36;99750.41;10341984;28;20084;-77
2022/07/26 02:29:54;;;;;;;6.35;2.72;;;;;;;17.47;56.56;99750.28;10339041;28;20125;-77
2022/07/26 02:34:56;;;;;;;8.60;3.08;;;;;;;17.41;56.96;99750.84;10342071;28;20057;-77
2022/07/26 02:39:58;;;;;;;6.65;2.80;;;;;;;17.47;56.65;99754.72;10357666;28;20553;-76
2022/07/26 02:44:59;;;;;;;5.60;2.60;;;;;;;17.45;56.97;99762.81;10340659;28;20089;-76
2022/07/26 02:50:01;;;;;;;6.43;2.67;;;;;;;17.40;56.74;99765.06;10339692;28;20086;-76
2022/07/26 02:55:04;;;;;;;6.10;2.72;;;;;;;17.38;56.33;99774.94;10341685;28;20057;-76
2022/07/26 03:00:07;;;;;;;6.38;2.55;;;;;;;17.31;56.14;99765.84;10355643;28;20116;-76
2022/07/26 03:05:10;;;;;;;6.90;2.55;;;;;;;17.29;55.76;99767.78;10347271;28;20115;-76
2022/07/26 03:10:11;;;;;;;6.00;2.30;;;;;;;17.30;56.33;99772.06;10351042;28;20077;-76
2022/07/26 03:15:13;;;;;;;5.88;2.30;;;;;;;17.41;55.88;99773.78;10334442;28;20053;-76
2022/07/26 03:20:15;;;;;;;5.40;2.42;;;;;;;17.47;55.85;99782.00;10335591;28;20054;-77
2022/07/26 03:25:17;;;;;;;7.80;2.30;;;;;;;17.53;55.89;99781.47;10331505;28;20081;-77
2022/07/26 03:30:19;;;;;;;8.75;2.25;;;;;;;17.60;55.64;99779.09;10346861;28;20444;-76
2022/07/26 03:35:26;;;;;;;5.75;2.13;;;;;;;17.63;55.32;99774.34;10331232;28;20050;-77
2022/07/26 03:40:27;;;;;;;9.63;2.30;;;;;;;17.53;55.46;99784.09;10331865;28;20049;-77
2022/07/26 03:45:29;;;;;;;4.80;2.28;;;;;;;17.13;56.28;99788.63;10333382;28;20054;-76
2022/07/26 03:50:31;;;;;;;8.82;2.42;;;;;;;17.05;56.67;99791.13;10333369;28;20046;-76
2022/07/26 04:00:53;;;;;;;7.45;2.40;;;;;;;17.51;55.48;99787.84;10332853;28;20058;-77
2022/07/26 04:05:55;;;;;;;7.05;2.60;;;;;;;17.63;55.24;99789.38;10348109;28;20703;-77
2022/07/26 04:10:57;;;;;;;6.80;2.47;;;;;;;17.70;55.30;99794.00;10330763;28;20054;-77
2022/07/26 04:15:59;;;;;;;5.95;2.25;;;;;;;17.97;54.52;99793.28;10347214;28;20416;-77
2022/07/26 04:21:00;;;;;;;6.57;2.00;;;;;;;18.33;53.15;99787.22;10331307;28;20050;-77
2022/07/26 04:26:02;;;;;;;6.68;2.20;;;;;;;18.55;53.13;99783.38;10333916;28;20062;-77
2022/07/26 04:31:04;;;;;;;4.20;1.80;;;;;;;18.81;51.94;99794.16;10350562;28;20069;-77
2022/07/26 04:36:06;;;;;;;6.55;1.80;;;;;;;19.45;50.20;99795.72;10339863;28;20061;-77
2022/07/26 04:41:08;;;;;;;6.97;1.98;;;;;;;21.80;45.32;99786.13;10339291;28;20052;-78
2022/07/26 04:46:10;;;;;;;7.28;1.88;;;;;;;23.03;42.25;99786.53;10351092;28;20105;-77
2022/07/26 04:51:12;;;;;;;8.20;1.70;;;;;;;21.61;44.13;99793.63;10337913;28;20058;-77
2022/07/26 04:56:14;;;;;;;6.93;1.80;;;;;;;21.06;45.38;99795.97;10339142;28;20081;-78
2022/07/26 05:01:15;;;;;;;8.75;1.83;;;;;;;20.73;45.85;99786.19;10354404;28;20094;-77
2022/07/26 05:06:17;;;;;;;6.80;1.75;;;;;;;20.70;46.10;99787.34;10337126;28;20396;-77
2022/07/26 05:11:19;;;;;;;6.88;1.80;;;;;;;20.74;45.96;99783.38;10336875;28;20061;-77
2022/07/26 05:16:21;;;;;;;7.30;1.98;;;;;;;23.99;40.68;99771.69;10336945;28;20115;-77
2022/07/26 05:21:23;;;;;;;3.33;1.60;;;;;;;24.16;39.19;99767.06;10355839;28;20463;-77
2022/07/26 05:26:24;;;;;;;9.23;1.80;;;;;;;24.73;38.36;99759.25;10340311;28;20135;-77
2022/07/26 05:31:26;;;;;;;3.72;1.77;;;;;;;25.48;36.95;99771.28;10354274;28;20055;-78
2022/07/26 05:36:28;;;;;;;3.83;1.70;;;;;;;25.17;36.75;99777.88;10337130;28;20570;-78
2022/07/26 05:41:30;;;;;;;6.25;1.83;;;;;;;24.12;38.53;99777.25;10352556;28;20093;-78
2022/07/26 05:46:32;;;;;;;4.57;1.63;;;;;;;23.04;40.17;99780.22;10351668;28;20467;-78
2022/07/26 05:51:34;;;;;;;9.50;2.00;;;;;;;22.16;41.83;99783.13;10336617;28;20054;-77
2022/07/26 05:56:35;;;;;;;6.95;1.90;;;;;;;21.90;42.45;99784.13;10337430;28;20120;-77
2022/07/26 06:01:37;;;;;;;7.03;1.85;;;;;;;21.62;42.85;99785.47;10336519;28;20479;-77
2022/07/26 06:06:39;;;;;;;6.32;1.70;;;;;;;21.42;43.43;99776.13;10335675;28;20454;-77
2022/07/26 06:11:41;;;;;;;8.05;1.55;;;;;;;21.17;43.68;99771.72;10335470;28;20088;-78
2022/07/26 06:16:44;;;;;;;5.30;1.80;;;;;;;21.24;43.67;99770.09;10334275;28;20050;-78
2022/07/26 06:21:46;;;;;;;5.13;1.60;;;;;;;21.19;43.97;99784.88;10331871;28;20049;-78
2022/07/26 06:26:50;;;;;;;5.03;1.55;;;;;;;21.10;43.92;99789.34;10326842;28;20050;-77
2022/07/26 06:31:57;;;;;;;;;;;;;;;20.85;44.56;99791.06;10334652;28;20153;-78
2022/07/26 06:36:59;;;;;;;5.75;1.80;;;;;;;21.16;44.34;99791.34;10336171;28;19922;-77
2022/07/26 06:42:01;;;;;;;5.13;1.70;;;;;;;21.29;44.16;99778.41;10333746;28;20392;-78
2022/07/26 06:47:03;;;;;;;5.80;1.70;;;;;;;21.57;43.54;99789.63;10335318;28;20112;-78
2022/07/26 06:52:04;;;;;;;7.10;1.80;;;;;;;21.67;43.31;99790.28;10335925;28;20058;-78
2022/07/26 06:57:06;;;;;;;6.80;1.52;;;;;;;21.82;43.08;99801.97;10332790;28;20484;-80
2022/07/26 07:02:08;;;;;;;6.78;1.77;;;;;;;21.81;43.08;99802.94;10333973;28;20096;-79
2022/07/26 07:07:10;;;;;;;7.18;1.65;;;;;;;22.03;42.78;99799.63;10332428;28;20057;-82
2022/07/26 07:12:14;;;;;;;7.72;1.63;;;;;;;22.01;43.15;99798.09;10331355;28;20823;-79
2022/07/26 07:17:18;;;;;;;6.30;1.40;;;;;;;22.19;42.37;99799.59;10336176;28;20197;-79
2022/07/26 07:22:20;;;;;;;4.93;1.60;;;;;;;22.23;42.47;99795.59;10333837;28;20874;-79
2022/07/26 07:27:22;;;;;;;4.65;1.98;;;;;;;22.37;41.86;99797.56;10349421;28;20077;-79
2022/07/26 07:32:27;;;;;;;7.10;1.75;;;;;;;22.52;41.80;99798.53;10345618;28;20573;-79
2022/07/26 07:37:29;;;;;;;8.48;1.75;;;;;;;22.85;41.11;99793.97;10333659;28;20424;-79
2022/07/26 07:42:51;;;;;;;6.18;1.65;;;;;;;24.90;38.17;99788.28;10331115;28;20504;-79
2022/07/26 07:47:53;;;;;;;7.20;1.70;;;;;;;26.71;35.42;99785.84;10334024;28;20101;-80
2022/07/26 07:52:55;;;;;;;8.13;1.73;;;;;;;28.34;32.25;99771.16;10335459;28;20108;-80
2022/07/26 07:57:59;;;;;;;6.03;1.65;;;;;;;27.43;33.28;99784.31;10349522;28;20563;-80
2022/07/26 08:03:01;;;;;;;8.40;1.95;;;;;;;26.31;35.19;99789.28;10348870;28;20109;-79
2022/07/26 08:08:03;;;;;;;5.95;1.80;;;;;;;28.10;32.73;99789.53;10349936;28;20053;-80
2022/07/26 08:13:08;;;;;;;9.18;1.67;;;;;;;27.72;32.55;99793.03;10331034;28;20054;-80
2022/07/26 08:18:11;;;;;;;4.40;1.75;;;;;;;28.00;32.46;99799.06;10336767;28;20061;-80
2022/07/26 08:23:14;;;;;;;5.72;1.85;;;;;;;28.88;30.99;99801.25;10334299;28;20054;-80
2022/07/26 08:28:16;;;;;;;5.75;1.85;;;;;;;29.53;29.86;99790.16;10333648;28;20066;-80
2022/07/26 08:33:38;;;;;;;5.38;1.40;;;;;;;30.08;28.69;99801.19;10347973;28;20056;-80
2022/07/26 08:38:47;;;;;;;7.88;1.83;;;;;;;28.12;31.39;99811.69;10331085;28;20054;-80
2022/07/26 08:43:49;;;;;;;4.03;1.70;;;;;;;28.46;30.57;99816.00;10334051;28;20054;-80
2022/07/26 08:48:55;;;;;;;6.25;1.70;;;;;;;28.20;30.58;99806.09;10337454;28;20707;-80
2022/07/26 08:53:59;;;;;;;5.80;1.67;;;;;;;27.93;31.22;99809.00;10333475;28;20056;-80
2022/07/26 08:59:14;;;;;;;4.10;1.63;;;;;;;29.35;29.11;99808.91;10345574;28;20053;-80
2022/07/26 09:04:24;;;;;;;3.97;1.50;;;;;;;28.96;29.23;99801.84;10332160;28;20124;-80
2022/07/26 09:09:52;;;;;;;5.28;1.80;;;;;;;28.54;29.93;99813.13;10331511;28;20061;-80
2022/07/26 09:14:55;;;;;;;7.07;1.90;;;;;;;28.53;29.96;99819.53;10333121;28;20069;-80
2022/07/26 09:20:13;;;;;;;5.72;1.50;;;;;;;27.48;30.83;99827.47;10352213;28;20060;-80
2022/07/26 09:25:20;;;;;;;7.57;1.75;;;;;;;26.90;32.60;99824.53;10353316;28;20554;-80
2022/07/26 09:30:22;;;;;;;6.00;1.58;;;;;;;26.46;33.17;99833.78;10352725;28;20073;-80
2022/07/26 09:35:24;;;;;;;4.47;1.80;;;;;;;26.35;33.65;99833.47;10339607;28;20112;-80
2022/07/26 09:40:46;;;;;;;6.82;1.65;;;;;;;26.28;34.19;99832.59;10337488;28;20050;-80
2022/07/26 09:46:04;;;;;;;5.50;1.83;;;;;;;26.31;34.03;99843.75;10337285;28;20683;-81
2022/07/26 09:51:08;;;;;;;6.82;1.70;;;;;;;26.31;34.27;99859.84;10351567;28;20050;-81
2022/07/26 09:56:10;;;;;;;4.78;1.83;;;;;;;26.31;34.10;99859.00;10353459;28;20061;-80
2022/07/26 10:01:12;;;;;;;5.82;1.90;;;;;;;26.15;34.42;99856.63;10332904;28;20506;-80
2022/07/26 10:06:14;;;;;;;7.82;1.70;;;;;;;26.24;34.29;99858.16;10352106;28;20061;-80
2022/07/26 10:11:18;;;;;;;6.95;1.90;;;;;;;26.48;34.57;99863.06;10352220;28;20058;-80
2022/07/26 10:16:31;;;;;;;8.35;1.75;;;;;;;26.90;33.42;99870.16;10335968;28;20468;-80
2022/07/26 10:21:34;;;;;;;6.55;1.70;;;;;;;27.07;33.04;99864.28;10343127;28;20563;-80
2022/07/26 10:26:37;;;;;;;7.47;2.00;;;;;;;27.43;32.48;99861.38;10353120;28;20140;-80
2022/07/26 10:31:39;;;;;;;9.32;1.70;;;;;;;27.32;32.49;99870.81;10352548;28;20058;-80
2022/07/26 10:36:41;;;;;;;4.90;1.77;;;;;;;27.02;33.13;99869.41;10330149;28;20148;-80
2022/07/26 10:41:49;;;;;;;5.82;1.80;;;;;;;27.12;33.11;99869.88;10335685;28;20052;-80
2022/07/26 10:46:57;;;;;;;7.40;1.73;;;;;;;26.77;32.71;99881.69;10327065;28;20050;-80
2022/07/26 10:52:16;;;;;;;;;;;;;;;25.94;34.38;99878.84;10336114;28;20085;-80
2022/07/26 10:57:18;;;;;;;6.30;2.00;;;;;;;26.40;33.89;99885.50;10333717;28;19991;-81
2022/07/26 11:02:22;;;;;;;5.88;1.70;;;;;;;26.35;33.93;99887.09;10333791;28;20512;-81
2022/07/26 11:07:23;;;;;;;5.03;1.95;;;;;;;26.32;34.11;99866.03;10350826;28;20696;-80
2022/07/26 11:12:26;;;;;;;4.25;1.60;;;;;;;26.66;33.45;99872.31;10334729;28;20057;-81
2022/07/26 11:17:29;;;;;;;4.88;1.60;;;;;;;26.92;32.74;99871.63;10334134;28;20093;-80
2022/07/26 11:22:32;;;;;;;5.00;1.85;;;;;;;27.03;32.68;99871.09;10350810;28;20464;-80
2022/07/26 11:27:34;;;;;;;5.82;1.80;;;;;;;27.28;32.20;99874.94;10347583;28;20101;-80
2022/07/26 11:32:36;;;;;;;6.93;2.00;;;;;;;27.20;32.49;99877.00;10334959;28;20057;-81
2022/07/26 11:37:51;;;;;;;5.22;1.67;;;;;;;27.08;32.88;99867.78;10333684;28;20056;-81
2022/07/26 11:42:53;;;;;;;5.30;2.20;;;;;;;27.05;32.41;99860.97;10332228;28;20101;-81
2022/07/26 11:47:57;;;;;;;5.20;1.80;;;;;;;26.74;32.85;99862.44;10333016;28;20050;-80
2022/07/26 11:52:59;;;;;;;4.45;1.80;;;;;;;26.38;33.34;99866.09;10349239;28;20100;-81
2022/07/26 11:58:05;;;;;;;4.70;1.80;;;;;;;26.17;33.34;99868.81;10346735;28;20999;-81
2022/07/26 12:03:07;;;;;;;3.75;1.80;;;;;;;26.23;33.82;99868.03;10345633;28;20069;-80
2022/07/26 12:08:09;;;;;;;6.13;1.92;;;;;;;26.42;33.73;99861.16;10348018;28;20112;-80
2022/07/26 12:13:14;;;;;;;8.60;1.92;;;;;;;26.98;32.97;99856.59;10330087;28;20082;-81
2022/07/26 12:18:30;;;;;;;10.02;2.08;;;;;;;27.30;31.82;99839.84;10347687;28;20137;-81
2022/07/26 12:23:47;;;;;;;7.95;1.80;;;;;;;27.57;31.79;99840.72;10345605;28;20558;-82
2022/07/26 12:28:50;;;;;;;4.25;1.65;;;;;;;27.68;32.20;99848.22;10325183;28;20053;-80
2022/07/26 12:33:52;;;;;;;3.05;1.70;;;;;;;27.31;32.46;99838.81;10345259;28;20057;-81
2022/07/26 12:38:55;;;;;;;4.90;1.92;;;;;;;26.60;33.13;99848.97;10343523;28;20057;-80
2022/07/26 12:43:58;;;;;;;4.20;2.13;;;;;;;26.47;33.47;99848.00;10332437;28;20418;-81
2022/07/26 12:49:01;;;;;;;6.43;2.13;;;;;;;26.20;33.47;99852.31;10330062;28;20092;-80
2022/07/26 12:54:05;;;;;;;3.83;2.22;;;;;;;26.02;34.20;99857.31;10335402;28;20066;-81
2022/07/26 12:59:07;;;;;;;7.40;2.22;;;;;;;26.32;33.79;99855.31;10335858;28;20901;-81
2022/07/26 13:04:09;;;;;;;4.63;2.20;;;;;;;26.99;32.24;99845.69;10337475;28;20050;-80
2022/07/26 13:09:11;;;;;;;3.92;1.98;;;;;;;27.12;31.83;99832.28;10335421;28;20046;-81
2022/07/26 13:14:13;;;;;;;5.82;2.28;;;;;;;27.15;30.92;99821.19;10339075;28;20088;-81
2022/07/26 13:19:15;;;;;;;5.13;2.05;;;;;;;27.56;30.78;99813.06;10340503;28;20145;-81
2022/07/26 13:24:17;;;;;;;4.43;2.25;;;;;;;27.61;30.10;99820.47;10337927;28;20062;-81
2022/07/26 13:29:20;;;;;;;4.68;1.90;;;;;;;27.96;29.05;99803.19;10337974;28;20548;-81
2022/07/26 13:34:22;;;;;;;3.42;1.90;;;;;;;28.01;28.58;99795.34;10352353;28;20101;-81
2022/07/26 13:39:26;;;;;;;4.65;2.00;;;;;;;28.11;27.87;99795.75;10338661;28;20049;-81
2022/07/26 13:44:32;;;;;;;3.00;1.75;;;;;;;28.22;28.83;99797.81;10340097;28;20139;-81
2022/07/26 13:49:38;;;;;;;4.13;1.80;;;;;;;27.73;27.63;99792.84;10328640;28;20092;-80
2022/07/26 13:54:40;;;;;;;3.30;1.67;;;;;;;27.35;28.76;99789.03;10351774;28;20058;-80
2022/07/26 13:59:42;;;;;;;4.07;1.83;;;;;;;27.15;28.86;99788.97;10348457;28;20054;-80
2022/07/26 14:04:45;;;;;;;4.78;1.80;;;;;;;27.34;28.67;99798.94;10347633;28;20949;-80
2022/07/26 14:09:48;;;;;;;7.90;1.80;;;;;;;27.17;29.56;99805.72;10350348;28;20068;-80
2022/07/26 14:20:58;;;;;;;4.57;1.85;;;;;;;27.59;28.13;99809.09;10332707;28;20050;-80
2022/07/26 14:26:00;;;;;;;3.17;1.70;;;;;;;27.52;28.45;99817.19;10343570;28;20054;-80
2022/07/26 14:31:04;;;;;;;2.80;1.63;;;;;;;27.63;28.16;99805.00;10349719;28;20431;-80
2022/07/26 14:36:13;;;;;;;4.13;1.80;;;;;;;27.81;27.64;99803.38;10335674;28;20054;-80
2022/07/26 14:41:21;;;;;;;3.10;1.77;;;;;;;28.10;27.65;99810.22;10351062;28;20053;-80
2022/07/26 14:46:25;;;;;;;5.83;2.07;;;;;;;28.10;29.52;99803.00;10331465;28;20447;-79
2022/07/26 14:51:35;;;;;;;7.07;2.13;;;;;;;27.90;29.80;99810.22;10335598;28;20081;-80
2022/07/26 14:56:50;;;;;;;5.10;2.20;;;;;;;27.36;30.90;99802.25;10347747;28;20058;-80
2022/07/26 15:01:53;;;;;;;8.95;2.13;;;;;;;27.20;30.67;99807.19;10346642;28;20065;-80
2022/07/26 15:06:57;;;;;;;8.38;2.20;;;;;;;27.01;30.79;99811.41;10341806;28;20490;-81
2022/07/26 15:12:01;;;;;;;4.60;2.00;;;;;;;26.90;31.16;99811.13;10333623;28;20073;-80
2022/07/26 15:17:03;;;;;;;4.53;1.90;;;;;;;26.71;31.27;99804.63;10348157;28;20077;-80
2022/07/26 15:22:05;;;;;;;6.35;2.08;;;;;;;26.72;30.95;99814.34;10332678;28;20050;-80
2022/07/26 15:27:07;;;;;;;5.25;1.80;;;;;;;26.67;30.89;99809.56;10346112;28;20061;-80
2022/07/26 15:32:08;;;;;;;5.05;1.85;;;;;;;26.61;31.00;99813.03;10328552;28;20058;-80
2022/07/26 15:37:11;;;;;;;4.93;1.83;;;;;;;26.35;31.14;99812.84;10345612;28;20065;-80
2022/07/26 15:42:14;;;;;;;4.22;2.00;;;;;;;26.18;30.99;99819.50;10332612;28;20054;-79
2022/07/26 15:47:16;;;;;;;5.60;1.80;;;;;;;26.21;31.28;99815.63;10345879;28;20054;-80
2022/07/26 15:52:40;;;;;;;3.95;1.65;;;;;;;26.12;31.17;99822.97;10344931;28;20183;-80
2022/07/26 15:57:42;;;;;;;6.70;1.77;;;;;;;25.97;30.73;99816.88;10330828;28;20058;-80
2022/07/26 16:02:45;;;;;;;3.38;1.40;;;;;;;25.55;32.40;99820.34;10331368;28;20069;-79
2022/07/26 16:07:47;;;;;;;4.13;1.50;;;;;;;25.38;31.85;99834.19;10335768;28;20054;-79
2022/07/26 16:12:50;;;;;;;3.00;1.50;;;;;;;25.48;31.54;99827.50;10331153;28;20139;-79
2022/07/26 16:17:52;;;;;;;3.72;1.70;;;;;;;25.27;31.75;99829.25;10347454;28;20053;-80
2022/07/26 16:22:55;;;;;;;3.92;1.48;;;;;;;25.26;32.04;99828.47;10330106;28;20077;-79
2022/07/26 16:27:57;;;;;;;3.58;1.35;;;;;;;25.49;32.06;99826.47;10335580;28;20117;-79
2022/07/26 16:32:59;;;;;;;5.25;1.80;;;;;;;25.70;31.87;99813.09;10341209;28;20092;-79
2022/07/26 16:38:00;;;;;;;3.38;1.70;;;;;;;25.69;31.91;99813.31;10341303;28;20077;-79
2022/07/26 16:43:02;;;;;;;3.72;1.60;;;;;;;25.51;32.16;99810.25;10340545;28;20057;-79
2022/07/26 16:48:12;;;;;;;5.30;1.73;;;;;;;25.40;32.29;99816.91;10338786;28;20058;-79
2022/07/26 16:53:14;;;;;;;2.63;1.40;;;;;;;25.25;32.52;99813.41;10352628;28;20431;-79
2022/07/26 16:58:18;;;;;;;3.65;1.58;;;;;;;25.05;32.70;99812.34;10339845;28;20053;-79
2022/07/26 17:03:20;;;;;;;8.93;1.92;;;;;;;24.93;33.51;99813.84;10353671;28;20516;-79
2022/07/26 17:08:23;;;;;;;4.43;1.45;;;;;;;24.87;33.03;99806.56;10338304;28;20104;-79
2022/07/26 17:13:24;;;;;;;3.22;1.40;;;;;;;24.90;33.25;99808.84;10351966;28;20054;-79
2022/07/26 17:18:27;;;;;;;5.35;1.70;;;;;;;24.87;33.02;99812.75;10338113;28;20050;-79
2022/07/26 17:23:29;;;;;;;5.15;1.75;;;;;;;24.74;32.99;99814.41;10336525;28;20557;-79
2022/07/26 17:28:31;;;;;;;3.42;1.75;;;;;;;24.81;33.14;99810.81;10336128;28;20050;-79
2022/07/26 17:33:33;;;;;;;3.90;1.60;;;;;;;24.69;33.23;99812.25;10335433;28;20061;-80
2022/07/26 17:38:35;;;;;;;5.70;1.50;;;;;;;24.67;33.31;99808.94;10333641;28;20061;-80
2022/07/26 17:43:37;;;;;;;6.20;2.00;;;;;;;24.64;33.32;99803.94;10353495;28;20492;-79
2022/07/26 17:48:42;;;;;;;4.32;1.70;;;;;;;24.56;33.57;99797.84;10336469;28;20108;-79
2022/07/26 17:53:49;;;;;;;4.35;1.90;;;;;;;24.51;33.81;99802.94;10331353;28;20058;-80
2022/07/26 17:58:54;;;;;;;5.82;1.88;;;;;;;24.55;34.22;99818.41;10336396;28;20144;-79
2022/07/26 18:03:56;;;;;;;5.38;2.00;;;;;;;24.57;34.37;99816.38;10350942;28;20166;-80
2022/07/26 18:08:58;;;;;;;4.50;1.70;;;;;;;24.43;35.09;99819.88;10334661;28;20061;-79
2022/07/26 18:14:00;;;;;;;4.50;1.80;;;;;;;24.29;35.67;99815.34;10336507;28;20045;-79
2022/07/26 18:19:02;;;;;;;9.25;1.77;;;;;;;24.20;36.32;99821.81;10351188;28;20046;-79
2022/07/26 18:24:04;;;;;;;3.92;1.60;;;;;;;23.89;36.79;99824.53;10334507;28;20590;-81
2022/07/26 18:29:18;;;;;;;2.75;1.60;;;;;;;23.76;37.40;99829.63;10337559;28;20056;-80
2022/07/26 18:34:19;;;;;;;6.10;1.70;;;;;;;23.36;38.27;99827.22;10327722;28;20073;-80
2022/07/26 18:39:21;;;;;;;4.82;1.60;;;;;;;23.34;38.54;99843.41;10330398;28;20904;-80
2022/07/26 18:44:23;;;;;;;4.85;1.88;;;;;;;23.28;38.93;99845.94;10332227;28;20061;-80
2022/07/26 18:49:25;;;;;;;6.15;2.55;;;;;;;23.12;39.56;99846.88;10332562;28;20488;-80
2022/07/26 18:54:32;;;;;;;5.15;1.88;;;;;;;23.00;39.79;99852.75;10334159;28;20108;-80
2022/07/26 18:59:33;;;;;;;3.45;1.50;;;;;;;22.90;40.25;99852.13;10338397;28;20061;-79
2022/07/26 19:04:37;;;;;;;2.75;1.40;;;;;;;22.81;40.55;99859.31;10337316;28;20412;-80
2022/07/26 19:09:39;;;;;;;4.57;1.80;;;;;;;22.73;40.72;99858.47;10350234;28;20085;-80
2022/07/26 19:14:41;;;;;;;2.97;1.50;;;;;;;22.61;41.10;99864.19;10334630;28;20080;-79
2022/07/26 19:19:42;;;;;;;3.97;1.40;;;;;;;22.43;41.41;99876.84;10334754;28;20050;-80
2022/07/26 19:24:44;;;;;;;2.83;1.40;;;;;;;22.25;42.03;99889.50;10348298;28;20053;-79
2022/07/26 19:29:47;;;;;;;2.50;1.50;;;;;;;22.15;42.38;99904.03;10333025;28;20053;-78
2022/07/26 19:34:49;;;;;;;2.83;1.30;;;;;;;22.11;42.16;99906.16;10331512;28;20514;-79
2022/07/26 19:39:51;;;;;;;5.15;1.73;;;;;;;21.92;42.40;99900.31;10331592;28;20058;-79
2022/07/26 19:44:53;;;;;;;2.72;1.50;;;;;;;21.77;42.80;99916.09;10347367;28;20058;-79
2022/07/26 19:49:55;;;;;;;2.10;1.23;;;;;;;21.75;42.70;99928.72;10333227;28;20050;-79
2022/07/26 19:54:57;;;;;;;5.72;1.50;;;;;;;21.80;42.50;99942.41;10349872;28;20062;-79
2022/07/26 20:00:01;;;;;;;2.75;1.40;;;;;;;21.74;42.64;99948.38;10332937;28;20072;-79
2022/07/26 20:05:03;;;;;;;4.32;1.40;;;;;;;21.59;42.47;99957.97;10344930;28;20124;-79
2022/07/26 20:10:06;;;;;;;2.40;1.30;;;;;;;21.62;42.23;99961.13;10331508;28;20104;-79
2022/07/26 20:15:09;;;;;;;2.53;1.20;;;;;;;21.55;42.07;99969.91;10334434;28;20045;-79
2022/07/26 20:20:11;;;;;;;2.85;1.50;;;;;;;21.45;42.25;99963.91;10348437;28;20054;-79
2022/07/26 20:25:13;;;;;;;2.80;1.40;;;;;;;21.37;42.01;99969.19;10348130;28;20456;-79
2022/07/26 20:30:22;;;;;;;3.15;1.35;;;;;;;21.41;41.78;99979.34;10331291;28;20056;-79
2022/07/26 20:35:23;;;;;;;3.95;1.48;;;;;;;21.28;42.41;99978.91;10330290;28;20054;-79
2022/07/26 20:40:27;;;;;;;2.42;1.25;;;;;;;21.24;42.37;99982.03;10332521;28;20081;-79
2022/07/26 20:45:29;;;;;;;2.72;1.40;;;;;;;21.12;42.66;99980.66;10346771;28;20058;-79
2022/07/26 20:50:31;;;;;;;2.92;1.20;;;;;;;21.02;42.78;99989.59;10329581;28;20659;-78
2022/07/26 20:55:36;;;;;;;3.83;1.52;;;;;;;20.93;42.86;99981.69;10343302;28;20512;-79
2022/07/26 21:00:38;;;;;;;2.13;1.23;;;;;;;20.88;43.22;99986.66;10329849;28;20409;-78
2022/07/26 21:05:40;;;;;;;2.50;1.20;;;;;;;20.74;43.08;99995.19;10330958;28;20116;-80
2022/07/26 21:10:41;;;;;;;1.63;1.15;;;;;;;20.68;43.57;99999.28;10342242;28;20042;-79
2022/07/26 21:15:43;;;;;;;3.08;1.35;;;;;;;20.62;43.69;100002.56;10338228;28;20046;-79
2022/07/26 21:20:46;;;;;;;2.20;1.40;;;;;;;20.45;43.98;100005.22;10338597;28;20125;-79
2022/07/26 21:25:48;;;;;;;2.88;1.30;;;;;;;20.41;44.00;99998.53;10336684;28;20054;-79
2022/07/26 21:30:58;;;;;;;3.97;1.30;;;;;;;20.41;44.53;100002.03;10353021;28;20050;-79
2022/07/26 21:36:00;;;;;;;3.67;1.30;;;;;;;20.40;44.11;100005.66;10334495;28;20109;-78
2022/07/26 21:41:02;;;;;;;2.40;1.20;;;;;;;20.35;44.39;99999.97;10337294;28;20068;-79
2022/07/26 21:46:04;;;;;;;3.97;1.30;;;;;;;20.29;44.91;100005.91;10336894;28;20058;-78
2022/07/26 21:51:12;;;;;;;5.93;1.43;;;;;;;20.26;45.00;100007.03;10337111;28;20143;-79
2022/07/26 21:56:14;;;;;;;2.22;1.30;;;;;;;20.22;45.02;100010.97;10333841;28;20156;-78
2022/07/26 22:01:18;;;;;;;2.45;1.30;;;;;;;20.25;45.32;100015.97;10337608;28;20120;-78
2022/07/26 22:06:20;;;;;;;3.38;1.20;;;;;;;20.11;45.21;100016.50;10335527;28;20451;-79
2022/07/26 22:11:22;;;;;;;3.00;1.30;;;;;;;20.09;45.24;100015.00;10336636;28;20500;-79
2022/07/26 22:16:24;;;;;;;2.63;1.20;;;;;;;19.96;45.73;100007.41;10336401;28;20058;-79
2022/07/26 22:21:25;;;;;;;2.70;1.30;;;;;;;20.05;45.80;100011.78;10334731;28;20053;-79
2022/07/26 22:26:29;;;;;;;2.97;1.20;;;;;;;20.09;45.64;100015.00;10336985;28;20209;-78
2022/07/26 22:31:31;;;;;;;2.67;1.30;;;;;;;20.01;45.61;100014.91;10336017;28;20058;-78
2022/07/26 22:36:33;;;;;;;2.53;1.30;;;;;;;19.87;46.11;100015.38;10335103;28;20547;-78
2022/07/26 22:41:35;;;;;;;2.83;1.30;;;;;;;19.83;46.45;100020.16;10335063;28;20549;-77
2022/07/26 22:46:57;;;;;;;2.33;1.20;;;;;;;19.75;46.31;100024.50;10335001;28;20119;-78
2022/07/26 22:51:58;;;;;;;4.90;1.33;;;;;;;19.53;46.78;100022.25;10336039;28;20062;-78
2022/07/26 22:57:00;;;;;;;3.58;1.30;;;;;;;19.55;46.96;100021.13;10348101;28;20511;-77
2022/07/26 23:02:03;;;;;;;2.28;1.25;;;;;;;19.63;47.35;100009.78;10334152;28;20049;-78
2022/07/26 23:07:05;;;;;;;2.53;1.23;;;;;;;19.44;47.71;100016.84;10335262;28;20062;-78
2022/07/26 23:12:07;;;;;;;4.65;1.30;;;;;;;19.28;47.83;100018.44;10332169;28;20115;-78
2022/07/26 23:17:08;;;;;;;3.10;1.20;;;;;;;19.40;47.62;100012.81;10334164;28;20058;-78
2022/07/26 23:22:11;;;;;;;3.67;1.30;;;;;;;19.55;47.19;100012.31;10329664;28;20112;-77
2022/07/26 23:27:15;;;;;;;4.38;1.45;;;;;;;19.51;47.51;100014.44;10334548;28;20046;-78
2022/07/26 23:32:20;;;;;;;3.65;1.38;;;;;;;19.61;47.16;100014.38;10346672;28;20052;-78
2022/07/26 23:37:22;;;;;;;3.67;1.40;;;;;;;19.52;47.42;100017.94;10341073;28;20463;-78
2022/07/26 23:42:24;;;;;;;2.42;1.27;;;;;;;19.48;47.70;100026.16;10330970;28;20053;-78